Terminal Aerodrome Forecast
Issued by NWS Quad Cities IA IL

Home | Current Version | Previous Version | Text Only | Print | Product List | Glossary On
Versions: 1 2 3 4 5 6 7 8 9 10 11 12 13 14 15 16 17 18 19 20 21 22 23 24
000
FTUS43 KDVN 240531
TAFMLI
TAF
KMLI 240531Z 2406/2506 VRB03KT P6SM OVC018
     FM241500 11008KT P6SM BKN025
     FM241800 12011KT P6SM BKN035
     FM250000 14014G22KT P6SM VCSH BKN040
      TEMPO 2503/2506 5SM -SHRA BKN025=

USA.gov is the U.S. government's official web portal to all federal, state and local government web resources and services.